sensor_id;sensor_type;location;lat;lon;timestamp;temperature;humidity
28863;DHT22;15994;51.796;13.006;2023-03-11T00:00:38;5.00;99.90
28863;DHT22;15994;51.796;13.006;2023-03-11T00:03:07;4.90;99.90
28863;DHT22;15994;51.796;13.006;2023-03-11T00:05:36;4.70;99.90
28863;DHT22;15994;51.796;13.006;2023-03-11T00:08:05;4.60;99.90
28863;DHT22;15994;51.796;13.006;2023-03-11T00:10:37;4.30;99.90
28863;DHT22;15994;51.796;13.006;2023-03-11T00:13:05;4.10;99.90
28863;DHT22;15994;51.796;13.006;2023-03-11T00:15:33;4.00;99.90
28863;DHT22;15994;51.796;13.006;2023-03-11T00:18:00;3.90;99.90
28863;DHT22;15994;51.796;13.006;2023-03-11T00:20:29;3.50;99.90
28863;DHT22;15994;51.796;13.006;2023-03-11T00:22:57;3.20;99.90
28863;DHT22;15994;51.796;13.006;2023-03-11T00:25:27;2.80;99.90
28863;DHT22;15994;51.796;13.006;2023-03-11T00:27:55;2.60;99.90
28863;DHT22;15994;51.796;13.006;2023-03-11T00:30:23;2.50;99.90
28863;DHT22;15994;51.796;13.006;2023-03-11T00:32:52;2.40;99.90
28863;DHT22;15994;51.796;13.006;2023-03-11T00:35:25;2.30;99.90
28863;DHT22;15994;51.796;13.006;2023-03-11T00:37:57;2.20;99.90
28863;DHT22;15994;51.796;13.006;2023-03-11T00:40:25;2.10;99.90
28863;DHT22;15994;51.796;13.006;2023-03-11T00:42:52;2.10;99.90
28863;DHT22;15994;51.796;13.006;2023-03-11T00:45:19;2.00;99.90
28863;DHT22;15994;51.796;13.006;2023-03-11T00:47:45;2.10;99.90
28863;DHT22;15994;51.796;13.006;2023-03-11T00:50:17;2.10;99.90
28863;DHT22;15994;51.796;13.006;2023-03-11T00:52:45;2.00;99.90
28863;DHT22;15994;51.796;13.006;2023-03-11T00:55:14;2.10;99.90
28863;DHT22;15994;51.796;13.006;2023-03-11T00:57:41;2.20;99.90
28863;DHT22;15994;51.796;13.006;2023-03-11T01:00:15;2.00;99.90
28863;DHT22;15994;51.796;13.006;2023-03-11T01:02:42;2.10;99.90
28863;DHT22;15994;51.796;13.006;2023-03-11T01:05:09;2.00;99.90
28863;DHT22;15994;51.796;13.006;2023-03-11T01:07:36;1.90;99.90
28863;DHT22;15994;51.796;13.006;2023-03-11T01:10:03;1.90;99.90
28863;DHT22;15994;51.796;13.006;2023-03-11T01:12:30;1.90;99.90
28863;DHT22;15994;51.796;13.006;2023-03-11T01:14:56;1.90;99.90
28863;DHT22;15994;51.796;13.006;2023-03-11T01:17:23;1.90;99.90
28863;DHT22;15994;51.796;13.006;2023-03-11T01:19:49;1.70;99.90
28863;DHT22;15994;51.796;13.006;2023-03-11T01:22:16;1.70;99.90
28863;DHT22;15994;51.796;13.006;2023-03-11T01:24:43;1.60;99.90
28863;DHT22;15994;51.796;13.006;2023-03-11T01:27:10;1.70;99.90
28863;DHT22;15994;51.796;13.006;2023-03-11T01:29:37;1.70;99.90
28863;DHT22;15994;51.796;13.006;2023-03-11T01:32:03;1.60;99.90
28863;DHT22;15994;51.796;13.006;2023-03-11T01:34:31;1.50;99.90
28863;DHT22;15994;51.796;13.006;2023-03-11T01:37:00;1.50;99.90
28863;DHT22;15994;51.796;13.006;2023-03-11T01:39:27;1.50;99.90
28863;DHT22;15994;51.796;13.006;2023-03-11T01:41:53;1.40;99.90
28863;DHT22;15994;51.796;13.006;2023-03-11T01:44:20;1.30;99.90
28863;DHT22;15994;51.796;13.006;2023-03-11T01:49:22;1.40;99.90
28863;DHT22;15994;51.796;13.006;2023-03-11T01:52:00;1.40;99.90
28863;DHT22;15994;51.796;13.006;2023-03-11T01:54:30;1.40;99.90
28863;DHT22;15994;51.796;13.006;2023-03-11T01:57:00;1.40;99.90
28863;DHT22;15994;51.796;13.006;2023-03-11T01:59:32;1.40;99.90
28863;DHT22;15994;51.796;13.006;2023-03-11T02:02:07;1.20;99.90
28863;DHT22;15994;51.796;13.006;2023-03-11T02:04:36;1.20;99.90
28863;DHT22;15994;51.796;13.006;2023-03-11T02:07:03;1.30;99.90
28863;DHT22;15994;51.796;13.006;2023-03-11T02:09:32;1.20;99.90
28863;DHT22;15994;51.796;13.006;2023-03-11T02:11:58;1.20;99.90
28863;DHT22;15994;51.796;13.006;2023-03-11T02:14:27;1.20;99.90
28863;DHT22;15994;51.796;13.006;2023-03-11T02:16:56;1.10;99.90
28863;DHT22;15994;51.796;13.006;2023-03-11T02:22:14;1.20;99.90
28863;DHT22;15994;51.796;13.006;2023-03-11T02:31:10;1.10;99.90
28863;DHT22;15994;51.796;13.006;2023-03-11T02:33:37;1.10;99.90
28863;DHT22;15994;51.796;13.006;2023-03-11T02:36:04;1.10;99.90
28863;DHT22;15994;51.796;13.006;2023-03-11T02:38:30;1.00;99.90
28863;DHT22;15994;51.796;13.006;2023-03-11T02:40:59;1.10;99.90
28863;DHT22;15994;51.796;13.006;2023-03-11T02:43:39;0.90;99.90
28863;DHT22;15994;51.796;13.006;2023-03-11T02:46:07;0.80;99.90
28863;DHT22;15994;51.796;13.006;2023-03-11T02:48:36;0.90;99.90
28863;DHT22;15994;51.796;13.006;2023-03-11T02:51:03;0.90;99.90
28863;DHT22;15994;51.796;13.006;2023-03-11T02:53:32;0.90;99.90
28863;DHT22;15994;51.796;13.006;2023-03-11T02:56:00;0.90;99.90
28863;DHT22;15994;51.796;13.006;2023-03-11T02:58:26;0.90;99.90
28863;DHT22;15994;51.796;13.006;2023-03-11T03:00:53;1.00;99.90
28863;DHT22;15994;51.796;13.006;2023-03-11T03:03:19;1.00;99.90
28863;DHT22;15994;51.796;13.006;2023-03-11T03:05:45;1.00;99.90
28863;DHT22;15994;51.796;13.006;2023-03-11T03:08:12;1.00;99.90
28863;DHT22;15994;51.796;13.006;2023-03-11T03:10:39;0.90;99.90
28863;DHT22;15994;51.796;13.006;2023-03-11T03:13:05;1.00;99.90
28863;DHT22;15994;51.796;13.006;2023-03-11T03:15:32;1.00;99.90
28863;DHT22;15994;51.796;13.006;2023-03-11T03:17:58;1.00;99.90
28863;DHT22;15994;51.796;13.006;2023-03-11T03:20:25;0.90;99.90
28863;DHT22;15994;51.796;13.006;2023-03-11T03:22:51;0.90;99.90
28863;DHT22;15994;51.796;13.006;2023-03-11T03:25:18;1.00;99.90
28863;DHT22;15994;51.796;13.006;2023-03-11T03:27:44;1.00;99.90
28863;DHT22;15994;51.796;13.006;2023-03-11T03:30:11;0.90;99.90
28863;DHT22;15994;51.796;13.006;2023-03-11T03:32:39;1.00;99.90
28863;DHT22;15994;51.796;13.006;2023-03-11T03:35:05;1.00;99.90
28863;DHT22;15994;51.796;13.006;2023-03-11T03:37:34;1.00;99.90
28863;DHT22;15994;51.796;13.006;2023-03-11T03:40:01;1.00;99.90
28863;DHT22;15994;51.796;13.006;2023-03-11T03:42:35;1.00;99.90
28863;DHT22;15994;51.796;13.006;2023-03-11T03:45:03;1.00;99.90
28863;DHT22;15994;51.796;13.006;2023-03-11T03:47:32;1.10;99.90
28863;DHT22;15994;51.796;13.006;2023-03-11T03:49:58;1.10;99.90
28863;DHT22;15994;51.796;13.006;2023-03-11T03:52:25;1.10;99.90
28863;DHT22;15994;51.796;13.006;2023-03-11T03:54:51;1.10;99.90
28863;DHT22;15994;51.796;13.006;2023-03-11T03:57:18;1.10;99.90
28863;DHT22;15994;51.796;13.006;2023-03-11T03:59:44;1.10;99.90
28863;DHT22;15994;51.796;13.006;2023-03-11T04:02:11;1.10;99.90
28863;DHT22;15994;51.796;13.006;2023-03-11T04:04:37;1.10;99.90
28863;DHT22;15994;51.796;13.006;2023-03-11T04:07:05;1.10;99.90
28863;DHT22;15994;51.796;13.006;2023-03-11T04:09:32;1.00;99.90
28863;DHT22;15994;51.796;13.006;2023-03-11T04:11:59;1.10;99.90
28863;DHT22;15994;51.796;13.006;2023-03-11T04:14:25;1.10;99.90
28863;DHT22;15994;51.796;13.006;2023-03-11T04:16:52;1.10;99.90
28863;DHT22;15994;51.796;13.006;2023-03-11T04:19:18;1.00;99.90
28863;DHT22;15994;51.796;13.006;2023-03-11T04:21:45;1.00;99.90
28863;DHT22;15994;51.796;13.006;2023-03-11T04:24:11;0.90;99.90
28863;DHT22;15994;51.796;13.006;2023-03-11T04:26:38;1.00;99.90
28863;DHT22;15994;51.796;13.006;2023-03-11T04:29:04;1.00;99.90
28863;DHT22;15994;51.796;13.006;2023-03-11T04:31:31;1.00;99.90
28863;DHT22;15994;51.796;13.006;2023-03-11T04:33:57;1.00;99.90
28863;DHT22;15994;51.796;13.006;2023-03-11T04:36:24;0.90;99.90
28863;DHT22;15994;51.796;13.006;2023-03-11T04:38:50;0.80;99.90
28863;DHT22;15994;51.796;13.006;2023-03-11T04:41:17;0.90;99.90
28863;DHT22;15994;51.796;13.006;2023-03-11T04:43:43;0.90;99.90
28863;DHT22;15994;51.796;13.006;2023-03-11T04:46:10;0.90;99.90
28863;DHT22;15994;51.796;13.006;2023-03-11T04:48:36;0.90;99.90
28863;DHT22;15994;51.796;13.006;2023-03-11T04:51:03;0.80;99.90
28863;DHT22;15994;51.796;13.006;2023-03-11T04:53:29;0.80;99.90
28863;DHT22;15994;51.796;13.006;2023-03-11T04:55:56;0.80;99.90
28863;DHT22;15994;51.796;13.006;2023-03-11T04:58:22;0.80;99.90
28863;DHT22;15994;51.796;13.006;2023-03-11T05:00:49;0.80;99.90
28863;DHT22;15994;51.796;13.006;2023-03-11T05:03:15;0.90;99.90
28863;DHT22;15994;51.796;13.006;2023-03-11T05:05:43;0.90;99.90
28863;DHT22;15994;51.796;13.006;2023-03-11T05:08:09;0.90;99.90
28863;DHT22;15994;51.796;13.006;2023-03-11T05:10:36;0.90;99.90
28863;DHT22;15994;51.796;13.006;2023-03-11T05:13:04;0.90;99.90
28863;DHT22;15994;51.796;13.006;2023-03-11T05:15:31;0.90;99.90
28863;DHT22;15994;51.796;13.006;2023-03-11T05:17:57;0.90;99.90
28863;DHT22;15994;51.796;13.006;2023-03-11T05:20:24;0.90;99.90
28863;DHT22;15994;51.796;13.006;2023-03-11T05:22:50;0.90;99.90
28863;DHT22;15994;51.796;13.006;2023-03-11T05:25:17;0.80;99.90
28863;DHT22;15994;51.796;13.006;2023-03-11T05:27:43;0.80;99.90
28863;DHT22;15994;51.796;13.006;2023-03-11T05:30:10;0.90;99.90
28863;DHT22;15994;51.796;13.006;2023-03-11T05:32:36;0.80;99.90
28863;DHT22;15994;51.796;13.006;2023-03-11T05:35:03;0.80;99.90
28863;DHT22;15994;51.796;13.006;2023-03-11T05:37:30;0.80;99.90
28863;DHT22;15994;51.796;13.006;2023-03-11T05:39:57;0.80;99.90
28863;DHT22;15994;51.796;13.006;2023-03-11T05:42:23;0.80;99.90
28863;DHT22;15994;51.796;13.006;2023-03-11T05:44:50;0.80;99.90
28863;DHT22;15994;51.796;13.006;2023-03-11T05:47:17;0.80;99.90
28863;DHT22;15994;51.796;13.006;2023-03-11T05:49:46;0.80;99.90
28863;DHT22;15994;51.796;13.006;2023-03-11T05:52:13;0.80;99.90
28863;DHT22;15994;51.796;13.006;2023-03-11T05:54:39;0.80;99.90
28863;DHT22;15994;51.796;13.006;2023-03-11T05:57:06;0.80;99.90
28863;DHT22;15994;51.796;13.006;2023-03-11T05:59:32;0.80;99.90
28863;DHT22;15994;51.796;13.006;2023-03-11T06:02:00;0.80;99.90
28863;DHT22;15994;51.796;13.006;2023-03-11T06:04:26;0.70;99.90
28863;DHT22;15994;51.796;13.006;2023-03-11T06:06:53;0.80;99.90
28863;DHT22;15994;51.796;13.006;2023-03-11T06:09:20;0.80;99.90
28863;DHT22;15994;51.796;13.006;2023-03-11T06:11:46;0.80;99.90
28863;DHT22;15994;51.796;13.006;2023-03-11T06:14:13;0.80;99.90
28863;DHT22;15994;51.796;13.006;2023-03-11T06:16:40;0.80;99.90
28863;DHT22;15994;51.796;13.006;2023-03-11T06:19:07;0.80;99.90
28863;DHT22;15994;51.796;13.006;2023-03-11T06:21:34;0.80;99.90
28863;DHT22;15994;51.796;13.006;2023-03-11T06:24:00;0.80;99.90
28863;DHT22;15994;51.796;13.006;2023-03-11T06:26:27;0.80;99.90
28863;DHT22;15994;51.796;13.006;2023-03-11T06:28:53;0.80;99.90
28863;DHT22;15994;51.796;13.006;2023-03-11T06:31:26;0.80;99.90
28863;DHT22;15994;51.796;13.006;2023-03-11T06:33:53;0.70;99.90
28863;DHT22;15994;51.796;13.006;2023-03-11T06:36:21;0.80;99.90
28863;DHT22;15994;51.796;13.006;2023-03-11T06:38:50;0.80;99.90
28863;DHT22;15994;51.796;13.006;2023-03-11T06:41:17;0.70;99.90
28863;DHT22;15994;51.796;13.006;2023-03-11T06:43:43;0.70;99.90
28863;DHT22;15994;51.796;13.006;2023-03-11T06:46:14;0.70;99.90
28863;DHT22;15994;51.796;13.006;2023-03-11T06:48:41;0.80;99.90
28863;DHT22;15994;51.796;13.006;2023-03-11T06:51:09;0.80;99.90
28863;DHT22;15994;51.796;13.006;2023-03-11T06:53:36;0.80;99.90
28863;DHT22;15994;51.796;13.006;2023-03-11T06:56:12;0.70;99.90
28863;DHT22;15994;51.796;13.006;2023-03-11T06:58:40;0.80;99.90
28863;DHT22;15994;51.796;13.006;2023-03-11T07:01:16;0.80;99.90
28863;DHT22;15994;51.796;13.006;2023-03-11T07:03:42;0.80;99.90
28863;DHT22;15994;51.796;13.006;2023-03-11T07:06:13;0.80;99.90
28863;DHT22;15994;51.796;13.006;2023-03-11T07:08:40;0.80;99.90
28863;DHT22;15994;51.796;13.006;2023-03-11T07:11:18;0.80;99.90
28863;DHT22;15994;51.796;13.006;2023-03-11T07:13:46;0.80;99.90
28863;DHT22;15994;51.796;13.006;2023-03-11T07:16:18;0.80;99.90
28863;DHT22;15994;51.796;13.006;2023-03-11T07:18:47;0.80;99.90
28863;DHT22;15994;51.796;13.006;2023-03-11T07:21:15;0.80;99.90
28863;DHT22;15994;51.796;13.006;2023-03-11T07:23:42;0.80;99.90
28863;DHT22;15994;51.796;13.006;2023-03-11T07:26:10;0.90;99.90
28863;DHT22;15994;51.796;13.006;2023-03-11T07:28:37;0.90;99.90
28863;DHT22;15994;51.796;13.006;2023-03-11T07:31:09;1.00;99.90
28863;DHT22;15994;51.796;13.006;2023-03-11T07:33:36;1.00;99.90
28863;DHT22;15994;51.796;13.006;2023-03-11T07:36:08;1.00;99.90
28863;DHT22;15994;51.796;13.006;2023-03-11T07:38:35;1.00;99.90
28863;DHT22;15994;51.796;13.006;2023-03-11T07:41:02;1.00;99.90
28863;DHT22;15994;51.796;13.006;2023-03-11T07:43:29;1.00;99.90
28863;DHT22;15994;51.796;13.006;2023-03-11T07:46:13;1.00;99.90
28863;DHT22;15994;51.796;13.006;2023-03-11T07:48:43;1.10;99.90
28863;DHT22;15994;51.796;13.006;2023-03-11T07:51:14;1.20;99.90
28863;DHT22;15994;51.796;13.006;2023-03-11T07:53:41;1.20;99.90
28863;DHT22;15994;51.796;13.006;2023-03-11T07:56:10;1.30;99.90
28863;DHT22;15994;51.796;13.006;2023-03-11T07:58:37;1.30;99.90
28863;DHT22;15994;51.796;13.006;2023-03-11T08:01:06;1.30;99.90
28863;DHT22;15994;51.796;13.006;2023-03-11T08:03:33;1.20;99.90
28863;DHT22;15994;51.796;13.006;2023-03-11T08:06:00;1.30;99.90
28863;DHT22;15994;51.796;13.006;2023-03-11T08:08:27;1.20;99.90
28863;DHT22;15994;51.796;13.006;2023-03-11T08:10:53;1.30;99.90
28863;DHT22;15994;51.796;13.006;2023-03-11T08:13:20;1.20;99.90
28863;DHT22;15994;51.796;13.006;2023-03-11T08:15:47;1.30;99.90
28863;DHT22;15994;51.796;13.006;2023-03-11T08:18:13;1.40;99.90
28863;DHT22;15994;51.796;13.006;2023-03-11T08:20:40;1.60;99.90
28863;DHT22;15994;51.796;13.006;2023-03-11T08:23:06;1.60;99.90
28863;DHT22;15994;51.796;13.006;2023-03-11T08:25:33;1.50;99.90
28863;DHT22;15994;51.796;13.006;2023-03-11T08:28:03;1.40;99.90
28863;DHT22;15994;51.796;13.006;2023-03-11T08:30:32;1.40;99.90
28863;DHT22;15994;51.796;13.006;2023-03-11T08:32:58;1.40;99.90
28863;DHT22;15994;51.796;13.006;2023-03-11T08:35:25;1.40;99.90
28863;DHT22;15994;51.796;13.006;2023-03-11T08:37:52;1.40;99.90
28863;DHT22;15994;51.796;13.006;2023-03-11T08:40:18;1.50;99.90
28863;DHT22;15994;51.796;13.006;2023-03-11T08:42:45;1.60;99.90
28863;DHT22;15994;51.796;13.006;2023-03-11T08:45:11;1.50;99.90
28863;DHT22;15994;51.796;13.006;2023-03-11T08:47:38;1.50;99.90
28863;DHT22;15994;51.796;13.006;2023-03-11T08:50:10;1.40;99.90
28863;DHT22;15994;51.796;13.006;2023-03-11T08:52:36;1.50;99.90
28863;DHT22;15994;51.796;13.006;2023-03-11T08:55:04;1.50;99.90
28863;DHT22;15994;51.796;13.006;2023-03-11T08:57:31;1.50;99.90
28863;DHT22;15994;51.796;13.006;2023-03-11T08:59:57;1.50;99.90
28863;DHT22;15994;51.796;13.006;2023-03-11T09:02:24;1.40;99.90
28863;DHT22;15994;51.796;13.006;2023-03-11T09:04:51;1.50;99.90
28863;DHT22;15994;51.796;13.006;2023-03-11T09:07:18;1.50;99.90
28863;DHT22;15994;51.796;13.006;2023-03-11T09:09:44;1.50;99.90
28863;DHT22;15994;51.796;13.006;2023-03-11T09:12:11;1.70;99.90
28863;DHT22;15994;51.796;13.006;2023-03-11T09:14:39;1.60;99.90
28863;DHT22;15994;51.796;13.006;2023-03-11T09:17:07;1.80;99.90
28863;DHT22;15994;51.796;13.006;2023-03-11T09:19:34;1.80;99.90
28863;DHT22;15994;51.796;13.006;2023-03-11T09:22:01;2.00;99.90
28863;DHT22;15994;51.796;13.006;2023-03-11T09:24:28;2.10;99.90
28863;DHT22;15994;51.796;13.006;2023-03-11T09:26:54;2.20;99.90
28863;DHT22;15994;51.796;13.006;2023-03-11T09:29:21;2.20;99.90
28863;DHT22;15994;51.796;13.006;2023-03-11T09:31:47;2.10;99.90
28863;DHT22;15994;51.796;13.006;2023-03-11T09:34:14;2.20;99.90
28863;DHT22;15994;51.796;13.006;2023-03-11T09:36:41;2.10;99.90
28863;DHT22;15994;51.796;13.006;2023-03-11T09:39:07;2.20;99.90
28863;DHT22;15994;51.796;13.006;2023-03-11T09:41:42;2.20;99.90
28863;DHT22;15994;51.796;13.006;2023-03-11T09:44:36;2.00;99.90
28863;DHT22;15994;51.796;13.006;2023-03-11T09:50:05;2.20;99.90
28863;DHT22;15994;51.796;13.006;2023-03-11T09:55:26;2.30;99.90
28863;DHT22;15994;51.796;13.006;2023-03-11T09:57:58;2.40;99.90
28863;DHT22;15994;51.796;13.006;2023-03-11T10:00:27;2.30;99.90
28863;DHT22;15994;51.796;13.006;2023-03-11T10:02:54;2.30;99.90
28863;DHT22;15994;51.796;13.006;2023-03-11T10:05:21;2.30;99.90
28863;DHT22;15994;51.796;13.006;2023-03-11T10:07:56;2.40;99.90
28863;DHT22;15994;51.796;13.006;2023-03-11T10:10:27;2.20;99.90
28863;DHT22;15994;51.796;13.006;2023-03-11T10:15:48;2.20;99.90
28863;DHT22;15994;51.796;13.006;2023-03-11T10:21:34;2.10;99.90
28863;DHT22;15994;51.796;13.006;2023-03-11T10:24:35;2.00;99.90
28863;DHT22;15994;51.796;13.006;2023-03-11T10:27:10;1.80;99.90
28863;DHT22;15994;51.796;13.006;2023-03-11T10:30:18;1.80;99.90
28863;DHT22;15994;51.796;13.006;2023-03-11T10:32:55;1.80;99.90
28863;DHT22;15994;51.796;13.006;2023-03-11T10:35:37;1.90;99.90
28863;DHT22;15994;51.796;13.006;2023-03-11T10:38:41;1.80;99.90
28863;DHT22;15994;51.796;13.006;2023-03-11T10:41:04;1.80;99.90
28863;DHT22;15994;51.796;13.006;2023-03-11T10:43:42;1.80;99.90
28863;DHT22;15994;51.796;13.006;2023-03-11T10:46:25;2.00;99.90
28863;DHT22;15994;51.796;13.006;2023-03-11T10:48:52;2.10;99.90
28863;DHT22;15994;51.796;13.006;2023-03-11T10:51:23;2.20;99.90
28863;DHT22;15994;51.796;13.006;2023-03-11T10:53:54;2.30;99.90
28863;DHT22;15994;51.796;13.006;2023-03-11T10:58:50;2.30;99.90
28863;DHT22;15994;51.796;13.006;2023-03-11T11:01:17;2.30;99.90
28863;DHT22;15994;51.796;13.006;2023-03-11T11:03:47;2.20;99.90
28863;DHT22;15994;51.796;13.006;2023-03-11T11:06:30;2.20;99.90
28863;DHT22;15994;51.796;13.006;2023-03-11T11:11:34;2.00;99.90
28863;DHT22;15994;51.796;13.006;2023-03-11T11:14:04;2.10;99.90
28863;DHT22;15994;51.796;13.006;2023-03-11T11:16:33;2.30;99.90
28863;DHT22;15994;51.796;13.006;2023-03-11T11:19:11;2.50;99.90
28863;DHT22;15994;51.796;13.006;2023-03-11T11:21:41;2.60;99.90
28863;DHT22;15994;51.796;13.006;2023-03-11T11:24:22;2.70;99.90
28863;DHT22;15994;51.796;13.006;2023-03-11T11:27:16;2.90;99.90
28863;DHT22;15994;51.796;13.006;2023-03-11T11:29:43;3.00;99.90
28863;DHT22;15994;51.796;13.006;2023-03-11T11:35:01;2.80;99.90
28863;DHT22;15994;51.796;13.006;2023-03-11T11:37:34;2.90;99.90
28863;DHT22;15994;51.796;13.006;2023-03-11T11:42:48;3.50;99.90
28863;DHT22;15994;51.796;13.006;2023-03-11T11:45:36;3.50;99.90
28863;DHT22;15994;51.796;13.006;2023-03-11T11:48:20;3.40;99.90
28863;DHT22;15994;51.796;13.006;2023-03-11T11:50:51;3.20;99.90
28863;DHT22;15994;51.796;13.006;2023-03-11T11:53:35;3.00;99.90
28863;DHT22;15994;51.796;13.006;2023-03-11T11:56:02;2.90;99.90
28863;DHT22;15994;51.796;13.006;2023-03-11T11:58:29;2.80;99.90
28863;DHT22;15994;51.796;13.006;2023-03-11T12:04:19;2.80;99.90
28863;DHT22;15994;51.796;13.006;2023-03-11T12:07:04;3.00;99.90
28863;DHT22;15994;51.796;13.006;2023-03-11T12:09:54;3.20;99.90
28863;DHT22;15994;51.796;13.006;2023-03-11T12:12:31;3.10;99.90
28863;DHT22;15994;51.796;13.006;2023-03-11T12:15:16;3.10;99.90
28863;DHT22;15994;51.796;13.006;2023-03-11T12:17:46;2.90;99.90
28863;DHT22;15994;51.796;13.006;2023-03-11T12:23:23;3.00;99.90
28863;DHT22;15994;51.796;13.006;2023-03-11T12:28:57;3.00;99.90
28863;DHT22;15994;51.796;13.006;2023-03-11T12:31:29;2.90;99.90
28863;DHT22;15994;51.796;13.006;2023-03-11T12:34:04;3.00;99.90
28863;DHT22;15994;51.796;13.006;2023-03-11T12:36:40;3.00;99.90
28863;DHT22;15994;51.796;13.006;2023-03-11T12:41:46;2.90;99.90
28863;DHT22;15994;51.796;13.006;2023-03-11T12:44:27;3.30;99.90
28863;DHT22;15994;51.796;13.006;2023-03-11T12:49:31;3.70;99.90
28863;DHT22;15994;51.796;13.006;2023-03-11T12:52:04;3.60;99.90
28863;DHT22;15994;51.796;13.006;2023-03-11T12:54:33;3.70;99.90
28863;DHT22;15994;51.796;13.006;2023-03-11T13:00:02;4.30;99.90
28863;DHT22;15994;51.796;13.006;2023-03-11T13:10:56;3.60;99.90
28863;DHT22;15994;51.796;13.006;2023-03-11T13:15:57;4.10;99.90
28863;DHT22;15994;51.796;13.006;2023-03-11T13:18:45;3.90;99.90
28863;DHT22;15994;51.796;13.006;2023-03-11T13:29:45;3.90;99.90
28863;DHT22;15994;51.796;13.006;2023-03-11T13:32:35;3.80;99.90
28863;DHT22;15994;51.796;13.006;2023-03-11T13:35:09;3.70;99.90
28863;DHT22;15994;51.796;13.006;2023-03-11T13:38:12;3.60;99.90
28863;DHT22;15994;51.796;13.006;2023-03-11T13:40:44;3.50;99.90
28863;DHT22;15994;51.796;13.006;2023-03-11T13:43:16;3.60;99.90
28863;DHT22;15994;51.796;13.006;2023-03-11T13:48:30;3.60;99.90
28863;DHT22;15994;51.796;13.006;2023-03-11T13:51:07;3.70;99.90
28863;DHT22;15994;51.796;13.006;2023-03-11T13:53:42;3.80;99.90
28863;DHT22;15994;51.796;13.006;2023-03-11T13:56:17;3.70;99.90
28863;DHT22;15994;51.796;13.006;2023-03-11T13:58:47;3.50;99.90
28863;DHT22;15994;51.796;13.006;2023-03-11T14:01:15;3.60;99.90
28863;DHT22;15994;51.796;13.006;2023-03-11T14:03:43;3.50;99.90
28863;DHT22;15994;51.796;13.006;2023-03-11T14:06:16;3.50;99.90
28863;DHT22;15994;51.796;13.006;2023-03-11T14:08:55;3.50;99.90
28863;DHT22;15994;51.796;13.006;2023-03-11T14:11:27;3.60;99.90
28863;DHT22;15994;51.796;13.006;2023-03-11T14:13:54;3.70;99.90
28863;DHT22;15994;51.796;13.006;2023-03-11T14:16:30;3.80;99.90
28863;DHT22;15994;51.796;13.006;2023-03-11T14:19:12;3.90;99.90
28863;DHT22;15994;51.796;13.006;2023-03-11T14:21:43;3.70;99.90
28863;DHT22;15994;51.796;13.006;2023-03-11T14:24:25;3.70;99.90
28863;DHT22;15994;51.796;13.006;2023-03-11T14:26:53;3.80;99.90
28863;DHT22;15994;51.796;13.006;2023-03-11T14:29:46;4.10;99.90
28863;DHT22;15994;51.796;13.006;2023-03-11T14:34:50;4.50;99.90
28863;DHT22;15994;51.796;13.006;2023-03-11T14:37:37;4.20;99.90
28863;DHT22;15994;51.796;13.006;2023-03-11T14:40:29;4.50;99.90
28863;DHT22;15994;51.796;13.006;2023-03-11T14:43:05;4.60;99.90
28863;DHT22;15994;51.796;13.006;2023-03-11T14:45:34;4.70;99.90
28863;DHT22;15994;51.796;13.006;2023-03-11T14:48:05;4.70;99.90
28863;DHT22;15994;51.796;13.006;2023-03-11T14:50:34;4.40;99.90
28863;DHT22;15994;51.796;13.006;2023-03-11T14:56:04;4.20;99.90
28863;DHT22;15994;51.796;13.006;2023-03-11T14:58:38;4.00;99.90
28863;DHT22;15994;51.796;13.006;2023-03-11T15:01:16;3.90;99.90
28863;DHT22;15994;51.796;13.006;2023-03-11T15:03:48;3.80;99.90
28863;DHT22;15994;51.796;13.006;2023-03-11T15:06:19;3.90;99.90
28863;DHT22;15994;51.796;13.006;2023-03-11T15:08:59;3.80;99.90
28863;DHT22;15994;51.796;13.006;2023-03-11T15:11:27;3.90;99.90
28863;DHT22;15994;51.796;13.006;2023-03-11T15:14:08;3.60;99.90
28863;DHT22;15994;51.796;13.006;2023-03-11T15:16:36;3.40;99.90
28863;DHT22;15994;51.796;13.006;2023-03-11T15:21:57;3.40;99.90
28863;DHT22;15994;51.796;13.006;2023-03-11T15:24:30;3.50;99.90
28863;DHT22;15994;51.796;13.006;2023-03-11T15:26:58;3.50;99.90
28863;DHT22;15994;51.796;13.006;2023-03-11T15:29:26;3.50;99.90
28863;DHT22;15994;51.796;13.006;2023-03-11T15:31:53;3.50;99.90
28863;DHT22;15994;51.796;13.006;2023-03-11T15:34:27;3.40;99.90
28863;DHT22;15994;51.796;13.006;2023-03-11T15:39:45;3.50;99.90
28863;DHT22;15994;51.796;13.006;2023-03-11T15:42:13;3.40;99.90
28863;DHT22;15994;51.796;13.006;2023-03-11T15:44:51;3.40;99.90
28863;DHT22;15994;51.796;13.006;2023-03-11T15:47:22;3.60;99.90
28863;DHT22;15994;51.796;13.006;2023-03-11T15:49:49;3.60;99.90
28863;DHT22;15994;51.796;13.006;2023-03-11T15:52:16;3.70;99.90
28863;DHT22;15994;51.796;13.006;2023-03-11T15:54:43;3.60;99.90
28863;DHT22;15994;51.796;13.006;2023-03-11T15:57:23;3.60;99.90
28863;DHT22;15994;51.796;13.006;2023-03-11T15:59:52;3.50;99.90
28863;DHT22;15994;51.796;13.006;2023-03-11T16:02:22;3.40;99.90
28863;DHT22;15994;51.796;13.006;2023-03-11T16:04:50;3.40;99.90
28863;DHT22;15994;51.796;13.006;2023-03-11T16:07:17;3.30;99.90
28863;DHT22;15994;51.796;13.006;2023-03-11T16:09:43;3.30;99.90
28863;DHT22;15994;51.796;13.006;2023-03-11T16:12:21;3.20;99.90
28863;DHT22;15994;51.796;13.006;2023-03-11T16:14:49;3.30;99.90
28863;DHT22;15994;51.796;13.006;2023-03-11T16:17:15;3.30;99.90
28863;DHT22;15994;51.796;13.006;2023-03-11T16:19:46;3.30;99.90
28863;DHT22;15994;51.796;13.006;2023-03-11T16:22:18;3.20;99.90
28863;DHT22;15994;51.796;13.006;2023-03-11T16:24:47;3.20;99.90
28863;DHT22;15994;51.796;13.006;2023-03-11T16:27:16;3.20;99.90
28863;DHT22;15994;51.796;13.006;2023-03-11T16:29:45;3.10;99.90
28863;DHT22;15994;51.796;13.006;2023-03-11T16:32:12;3.10;99.90
28863;DHT22;15994;51.796;13.006;2023-03-11T16:34:39;3.10;99.90
28863;DHT22;15994;51.796;13.006;2023-03-11T16:37:07;3.00;99.90
28863;DHT22;15994;51.796;13.006;2023-03-11T16:39:34;3.00;99.90
28863;DHT22;15994;51.796;13.006;2023-03-11T16:42:01;2.90;99.90
28863;DHT22;15994;51.796;13.006;2023-03-11T16:44:28;2.80;99.90
28863;DHT22;15994;51.796;13.006;2023-03-11T16:46:55;2.70;99.90
28863;DHT22;15994;51.796;13.006;2023-03-11T16:49:21;2.70;99.90
28863;DHT22;15994;51.796;13.006;2023-03-11T16:51:47;2.60;99.90
28863;DHT22;15994;51.796;13.006;2023-03-11T16:54:14;2.60;99.90
28863;DHT22;15994;51.796;13.006;2023-03-11T16:56:40;2.50;99.90
28863;DHT22;15994;51.796;13.006;2023-03-11T16:59:07;2.40;99.90
28863;DHT22;15994;51.796;13.006;2023-03-11T17:01:34;2.40;99.90
28863;DHT22;15994;51.796;13.006;2023-03-11T17:04:06;2.40;99.90
28863;DHT22;15994;51.796;13.006;2023-03-11T17:06:33;2.30;99.90
28863;DHT22;15994;51.796;13.006;2023-03-11T17:09:00;2.30;99.90
28863;DHT22;15994;51.796;13.006;2023-03-11T17:11:26;2.20;99.90